x

San Clemente Basin - 27nm Se Of San Clemente Is, Ca (46086) Wave Buoy

12:50pm - Sun 26th Feb 2017 All times are PST. -8 hours from GMT.

  • Sig Wave height 3.3ft
  • Swell Direction
  • Peak Period 15s
  • Average Period 5s
  • Wind
    11mph, 16mph gusts
  • Sea Temp 59°f
  • Air Temp 55°f
  • Sea Pressure 1015.6mb
  • San Clemente Basin - 27nm Se Of San Clemente Is, Ca
  • San Clemente Basin - 27nm Se Of San Clemente Is, Ca

More Historic Weather Station data

Upgrade to MSW Pro to gain access to the past 30 days of data for over 8000 Wavebouys and Weather Stations around the globe.

Join Pro

Comparision Forecast

View Surf forecast
   
Sun 02/26 12:50pm 3.5ft 15s 5s 11 16 mph 1015.6mb 59f 55f
11:50am 3.5ft 15s 5s 4 7 mph 1016.3mb 59f 54f
10:50am 3.5ft 14s 6s 9 11 mph 1016.7mb 59f 53f
9:50am 3.5ft 14s 6s 13 16 mph 1016.5mb 59f 52f
8:50am 3ft 15s 6s 13 16 mph 1016.7mb 59f 53f
7:50am 3.5ft 14s 6s 9 13 mph 1016.1mb 59f 55f
6:50am 3.5ft 15s 6s 7 9 mph 1015.7mb 59f 54f
5:50am 3.5ft 15s 6s 4 7 mph 1015.8mb 59f 53f
4:50am 4.5ft 15s  -  11 16 mph 1015.8mb 59f 55f
3:50am 4ft 15s 6s 9 11 mph 1015.8mb 59f 54f
2:50am 4.5ft 15s 6s 11 16 mph 1016.3mb 59f 55f
1:50am 4.5ft 15s 6s 13 16 mph 1016.6mb 59f 55f
12:50am 4.5ft 15s 6s 16 18 mph 1017.1mb 59f 55f
Sat 02/25 11:50pm 4.5ft 15s 5s 16 18 mph 1017.3mb 59f 54f
10:50pm 5ft 15s 6s 16 18 mph 1017.4mb 59f 55f
9:50pm 5ft 15s 6s 18 22 mph 1017.8mb 59f 55f
8:50pm 5ft 15s 6s 16 20 mph 1017.4mb 59f 55f
7:50pm 4.5ft 15s 5s 16 18 mph 1017.3mb 59f 55f
6:50pm 5ft 15s 5s 18 20 mph 1017.2mb 59f 55f
5:50pm 5ft 15s 5s 18 20 mph 1017.2mb 59f 55f
4:50pm 5ft 15s 5s 16 20 mph 1017.2mb 59f 55f
3:50pm 5ft 15s 5s 20 25 mph 1017.8mb 59f 55f
2:50pm 4.5ft 16s 5s 18 22 mph 1018mb 59f 55f
1:50pm 4.5ft 16s 6s 16 18 mph 1018.6mb 59f 55f
12:50pm 4ft 16s 6s 13 16 mph 1019.2mb 59f 55f
11:50am 4ft 16s 7s 11 13 mph 1019.7mb 59f 55f
10:50am 3.5ft 16s 6s 11 13 mph 1020.5mb 59f 55f
9:50am 4ft 16s 7s 7 11 mph 1020.6mb 59f 55f
8:50am 4ft 17s 7s 7 9 mph 1020.6mb 59f 55f
7:50am 4ft 16s 7s 2 4 mph 1020mb 59f 55f
6:50am 4.5ft 17s 7s 2 4 mph 1019.6mb 59f 54f
5:50am 4.5ft 8s 7s 4 7 mph 1019.8mb 59f 54f
4:50am 4.5ft 11s 7s 7 9 mph 1020.1mb 59f 55f
3:50am 4.5ft 8s 7s 7 9 mph 1020mb 59f 55f
2:50am 4.5ft 11s 6s 7 9 mph 1020.5mb 59f 55f
1:50am 4ft 8s 6s 7 11 mph 1021mb 59f 55f
12:50am 4.5ft 8s 6s 7 11 mph 1021.6mb 59f 54f
Fri 02/24 11:50pm 4.5ft 9s 6s 7 9 mph 1021.7mb 59f 55f
10:50pm 4.5ft 8s 6s 7 9 mph 1022.1mb 59f 55f
9:50pm 4.5ft 11s 6s 7 9 mph 1022.1mb 59f 55f
8:50pm 4.5ft 9s 6s 9 11 mph 1021.5mb 59f 55f
7:50pm 4.5ft 11s 6s 9 13 mph 1021.3mb 59f 55f
6:50pm 4.5ft 11s 6s 11 16 mph 1021mb 59f 55f
5:50pm 4.5ft 9s 6s 11 13 mph 1021mb 59f 55f
4:50pm 4.5ft 9s 6s 9 13 mph 1021mb 59f 56f
3:50pm 5ft 8s 6s 7 9 mph 1021.1mb 60f 56f
2:50pm 5.5ft 9s 7s 7 9 mph 1021.1mb 60f 56f
1:50pm 5ft 10s 7s 9 11 mph 1021.7mb 59f 56f
12:50pm 6ft 9s 7s 11
mph
1021.4mb 59f 56f
11:50am 5.5ft 8s 6s 9 11 mph 1022.1mb 59f 56f
10:50am 7ft 9s 7s 7 9 mph 1022.2mb 59f 55f
9:50am 6ft 8s 7s 7 9 mph 1022.2mb 59f 55f
8:50am 6ft 8s 7s 9 11 mph 1021.7mb 59f 55f
7:50am 6.5ft 8s 7s 11 13 mph 1021.1mb 59f 54f
6:50am 7ft 8s 7s 9 13 mph 1020.4mb 59f 54f
5:50am 8ft 9s 7s 9 13 mph 1020mb 59f 54f
4:50am 7ft 9s 7s 11 13 mph 1019.6mb 59f 54f
3:50am 8.5ft 8s 7s 11 16 mph 1019.1mb 59f 54f
2:50am 8ft 8s 7s 16 18 mph 1019.5mb 59f 54f
1:50am 9ft 8s 7s 13 18 mph 1019.7mb 59f 55f
12:50am 8.5ft 10s 7s 11 16 mph 1020.1mb 59f 54f
Thu 02/23 11:50pm 8ft 8s 7s 13 18 mph 1020.4mb 59f 54f
10:50pm 8.5ft 8s 7s 13 16 mph 1020.3mb 59f 54f
9:50pm 8ft 9s 7s 16 20 mph 1020mb 59f 54f
8:50pm 8ft 9s 6s 18 22 mph 1019.7mb 59f 55f
7:50pm 8ft 8s 7s 20 22 mph 1019.2mb 59f 55f
6:50pm 9ft 8s 7s 20 25 mph 1018.9mb 59f 55f
5:50pm 9ft 8s 7s 22 27 mph 1018.5mb 59f 54f
4:50pm 8.5ft 13s 7s 22 27 mph 1018.1mb 59f 55f
3:50pm 8ft 11s 6s 25 29 mph 1017.9mb 59f 54f
2:50pm 9ft 10s 7s 25 29 mph 1017.9mb 59f 54f
1:50pm 10ft 9s 7s 20 25 mph 1018.3mb 59f 54f
12:50pm 9ft 11s 7s 20 25 mph 1019mb 59f 54f
11:50am 11ft 8s 7s 18 22 mph 1019.5mb 59f 54f
10:50am 10.5ft 8s 7s 20 25 mph 1019.7mb 59f 54f
9:50am 10ft 12s 7s 20 25 mph 1019.5mb 59f 54f
8:50am 11ft 12s 7s 25 31 mph 1019.2mb 59f 54f
7:50am 10.5ft 10s 7s 25 31 mph 1018.7mb 59f 54f
6:50am 11ft 9s 7s 25 29 mph 1018.6mb 59f 55f
5:50am 11ft 10s 7s 25 29 mph 1018.3mb 59f 55f
4:50am 11.5ft 9s 7s 25 29 mph 1017.5mb 59f 55f
3:50am 12.5ft 8s 7s 27 31 mph 1017.2mb 59f 56f
2:50am 12ft 9s 7s 25 31 mph 1017.2mb 59f 56f
1:50am 11.5ft 14s 7s 25 29 mph 1018mb 59f 56f
12:50am 11ft 14s 7s 22 27 mph 1018.1mb 59f 56f
Wed 02/22 11:50pm 11ft 14s 7s 29 36 mph 1018mb 59f 56f
10:50pm 11.5ft 8s 7s 27 31 mph 1018.2mb 59f 56f